aviador You're here:

LFMK Decoded Metar

Carcassonne in FRANCE
Report Time2017-11-21 04:00:00
UTC Time2017-11-21 04:35:31
Flight Rules ifr IFR
WindVRB at 03 kt
Visibility4400 m
Phenomena:Mist
Clouds:N/A
CeilingNone
Temp02°C (ISA -12)
Dew Point02°C (100% RH)
AAT-0.8°C
QNH1021 hPa
Density Alt-1,224 ft
Elevation427 ft
Report Wrong Elevation
Raw Report
LFMK 210400Z AUTO VRB03KT 4400 BR VV/// 02/02 Q1021 BECMG 0300
FG=

Extra information for LFMK:More info

Metar Taf Metar & Taf Last 4 Metars F.Rules Stats Wind Profile Meteogram Temp Stats Airport Information Weather charts Add Link Nearby VenuesMetar ALERT Operation Metar Decoded Social comments

AudeAéroServices
Aéroprakt A-22
Husky Dealer